createdAt,value
2019-01-03T00:00:38.283Z,5.6
2019-01-03T00:01:38.367Z,4.8
2019-01-03T00:02:38.603Z,4.4
2019-01-03T00:03:38.717Z,2.7
2019-01-03T00:04:38.484Z,4.6
2019-01-03T00:05:38.542Z,3.5
2019-01-03T00:06:38.547Z,3.5
2019-01-03T00:07:38.312Z,2.6
2019-01-03T00:08:39.059Z,3.2
2019-01-03T00:09:38.869Z,4.8
2019-01-03T00:10:38.560Z,3.1
2019-01-03T00:11:38.629Z,5.3
2019-01-03T00:12:39.378Z,3.7
2019-01-03T00:13:38.441Z,3.7
2019-01-03T00:14:38.648Z,4.2
2019-01-03T00:15:38.382Z,4.2
2019-01-03T00:16:38.767Z,3.0
2019-01-03T00:17:38.610Z,3.2
2019-01-03T00:18:38.420Z,3.6
2019-01-03T00:19:38.419Z,3.7
2019-01-03T00:20:38.747Z,2.7
2019-01-03T00:21:38.659Z,3.7
2019-01-03T00:22:38.556Z,6.4
2019-01-03T00:23:38.398Z,4.7
2019-01-03T00:24:41.422Z,2.9
2019-01-03T00:25:38.470Z,3.0
2019-01-03T00:26:38.906Z,3.8
2019-01-03T00:27:38.855Z,3.1
2019-01-03T00:28:44.352Z,2.4
2019-01-03T00:29:38.525Z,3.0
2019-01-03T00:30:39.506Z,4.0
2019-01-03T00:31:38.716Z,3.2
2019-01-03T00:32:38.366Z,3.1
2019-01-03T00:33:38.529Z,3.5
2019-01-03T00:34:38.556Z,3.4
2019-01-03T00:35:38.420Z,2.9
2019-01-03T00:36:38.805Z,6.3
2019-01-03T00:37:38.360Z,4.2
2019-01-03T00:38:38.545Z,2.8
2019-01-03T00:39:38.448Z,3.2
2019-01-03T00:40:39.116Z,2.7
2019-01-03T00:41:38.645Z,3.6
2019-01-03T00:42:38.815Z,4.1
2019-01-03T00:43:39.587Z,2.8
2019-01-03T00:44:38.607Z,4.6
2019-01-03T00:45:38.639Z,3.9
2019-01-03T00:46:38.618Z,3.6
2019-01-03T00:47:38.961Z,2.9
2019-01-03T00:48:38.606Z,4.0
2019-01-03T00:49:38.595Z,2.6
2019-01-03T00:50:38.496Z,3.9
2019-01-03T00:51:38.812Z,2.9
2019-01-03T00:52:38.394Z,3.6
2019-01-03T00:53:38.502Z,2.2
2019-01-03T00:54:38.397Z,3.9
2019-01-03T00:55:38.660Z,3.4
2019-01-03T00:56:39.337Z,2.5
2019-01-03T00:57:38.403Z,2.6
2019-01-03T00:58:39.561Z,3.9
2019-01-03T00:59:38.911Z,2.8
2019-01-03T01:00:38.589Z,2.0
2019-01-03T01:01:38.642Z,2.3
2019-01-03T01:02:38.659Z,3.5
2019-01-03T01:03:38.631Z,2.0
2019-01-03T01:04:38.448Z,3.4
2019-01-03T01:05:39.676Z,3.4
2019-01-03T01:06:38.655Z,2.8
2019-01-03T01:07:39.071Z,3.1
2019-01-03T01:08:39.226Z,2.6
2019-01-03T01:09:38.952Z,2.6
2019-01-03T01:10:39.963Z,2.9
2019-01-03T01:11:38.675Z,2.1
2019-01-03T01:12:38.458Z,2.0
2019-01-03T01:13:38.382Z,2.0
2019-01-03T01:14:38.451Z,1.7
2019-01-03T01:15:38.471Z,2.5
2019-01-03T01:16:38.492Z,2.1
2019-01-03T01:17:39.126Z,3.3
2019-01-03T01:18:38.869Z,1.9
2019-01-03T01:19:38.880Z,2.3
2019-01-03T01:20:38.924Z,2.2
2019-01-03T01:21:38.876Z,2.1
2019-01-03T01:22:38.628Z,2.4
2019-01-03T01:23:38.403Z,2.4
2019-01-03T01:24:38.697Z,3.1
2019-01-03T01:25:38.696Z,2.7
2019-01-03T01:26:38.695Z,2.1
2019-01-03T01:27:38.679Z,2.5
2019-01-03T01:28:39.529Z,2.4
2019-01-03T01:29:38.528Z,2.1
2019-01-03T01:30:39.393Z,1.9
2019-01-03T01:31:38.978Z,2.0
2019-01-03T01:32:38.676Z,1.7
2019-01-03T01:33:39.155Z,2.2
2019-01-03T01:34:38.882Z,1.8
2019-01-03T01:35:38.491Z,2.2
2019-01-03T01:36:39.021Z,2.8
2019-01-03T01:37:38.951Z,2.9
2019-01-03T01:38:39.983Z,1.7
2019-01-03T01:39:38.686Z,2.8
2019-01-03T01:40:38.683Z,2.5
2019-01-03T01:41:39.386Z,2.2
2019-01-03T01:42:38.783Z,1.7
2019-01-03T01:43:38.789Z,2.2
2019-01-03T01:44:39.151Z,2.4
2019-01-03T01:45:38.735Z,2.5
2019-01-03T01:46:39.660Z,2.0
2019-01-03T01:47:38.622Z,2.1
2019-01-03T01:48:38.706Z,1.9
2019-01-03T01:49:38.455Z,2.6
2019-01-03T01:50:39.074Z,2.3
2019-01-03T01:51:38.780Z,2.1
2019-01-03T01:52:39.039Z,2.0
2019-01-03T01:53:38.737Z,1.6
2019-01-03T01:54:38.921Z,2.6
2019-01-03T01:55:38.683Z,1.6
2019-01-03T01:56:39.536Z,2.0
2019-01-03T01:57:38.971Z,2.7
2019-01-03T01:58:40.089Z,2.5
2019-01-03T01:59:38.736Z,1.8
2019-01-03T02:00:38.713Z,2.1
2019-01-03T02:01:38.493Z,2.1
2019-01-03T02:02:38.965Z,1.6
2019-01-03T02:03:38.545Z,1.7
2019-01-03T02:04:38.542Z,1.8
2019-01-03T02:05:38.716Z,2.3
2019-01-03T02:06:39.141Z,1.7
2019-01-03T02:07:39.101Z,2.3
2019-01-03T02:08:38.968Z,1.7
2019-01-03T02:09:39.010Z,1.9
2019-01-03T02:10:39.019Z,1.7
2019-01-03T02:11:39.070Z,3.5
2019-01-03T02:12:39.040Z,3.0
2019-01-03T02:13:39.689Z,2.3
2019-01-03T02:14:39.155Z,2.3
2019-01-03T02:15:39.157Z,1.6
2019-01-03T02:16:39.068Z,2.8
2019-01-03T02:17:38.756Z,1.8
2019-01-03T02:18:38.739Z,2.1
2019-01-03T02:19:38.603Z,2.1
2019-01-03T02:20:39.039Z,1.7
2019-01-03T02:21:38.860Z,2.2
2019-01-03T02:22:39.100Z,2.1
2019-01-03T02:23:38.888Z,2.1
2019-01-03T02:24:38.558Z,1.8
2019-01-03T02:25:39.073Z,2.0
2019-01-03T02:26:38.863Z,1.9
2019-01-03T02:27:38.704Z,2.8
2019-01-03T02:28:39.075Z,1.5
2019-01-03T02:29:38.632Z,2.0
2019-01-03T02:30:39.088Z,2.0
2019-01-03T02:31:38.618Z,1.8
2019-01-03T02:32:39.012Z,2.0
2019-01-03T02:33:38.607Z,2.4
2019-01-03T02:34:39.041Z,1.6
2019-01-03T02:35:38.821Z,2.0
2019-01-03T02:36:39.501Z,1.8
2019-01-03T02:37:39.020Z,2.1
2019-01-03T02:38:39.434Z,2.1
2019-01-03T02:39:40.047Z,1.9
2019-01-03T02:40:38.890Z,2.0
2019-01-03T02:41:39.004Z,1.8
2019-01-03T02:42:38.652Z,2.9
2019-01-03T02:43:38.736Z,1.7
2019-01-03T02:44:39.601Z,2.2
2019-01-03T02:45:39.044Z,2.4
2019-01-03T02:46:38.796Z,2.0
2019-01-03T02:47:38.818Z,1.9
2019-01-03T02:48:39.237Z,1.9
2019-01-03T02:49:38.665Z,2.0
2019-01-03T02:50:39.325Z,1.8
2019-01-03T02:51:40.127Z,1.6
2019-01-03T02:52:40.251Z,2.3
2019-01-03T02:53:38.842Z,1.6
2019-01-03T02:54:38.714Z,1.7
2019-01-03T02:55:39.384Z,2.1
2019-01-03T02:56:39.158Z,1.8
2019-01-03T02:57:39.066Z,1.9
2019-01-03T02:58:39.132Z,2.1
2019-01-03T02:59:39.271Z,2.3
2019-01-03T03:00:39.166Z,1.6
2019-01-03T03:01:39.223Z,2.0
2019-01-03T03:02:39.684Z,1.8
2019-01-03T03:03:39.216Z,1.7
2019-01-03T03:04:38.700Z,1.7
2019-01-03T03:05:39.748Z,1.9
2019-01-03T03:06:39.253Z,1.9
2019-01-03T03:07:39.008Z,1.7
2019-01-03T03:08:39.124Z,2.7
2019-01-03T03:09:39.225Z,2.6
2019-01-03T03:10:40.073Z,1.8
2019-01-03T03:11:39.157Z,1.7
2019-01-03T03:12:39.423Z,1.8
2019-01-03T03:13:39.175Z,1.6
2019-01-03T03:14:38.908Z,2.3
2019-01-03T03:15:38.927Z,2.6
2019-01-03T03:16:38.875Z,1.9
2019-01-03T03:17:39.200Z,2.1
2019-01-03T03:18:38.731Z,2.1
2019-01-03T03:19:39.089Z,2.0
2019-01-03T03:20:38.828Z,1.6
2019-01-03T03:21:38.961Z,2.0
2019-01-03T03:22:38.872Z,2.2
2019-01-03T03:23:39.681Z,2.0
2019-01-03T03:24:40.315Z,1.8
2019-01-03T03:25:38.797Z,1.5
2019-01-03T03:26:39.853Z,1.7
2019-01-03T03:27:38.779Z,1.7
2019-01-03T03:28:38.966Z,2.2
2019-01-03T03:29:40.712Z,2.1
2019-01-03T03:30:39.302Z,1.8
2019-01-03T03:31:38.703Z,1.7
2019-01-03T03:32:38.746Z,2.0
2019-01-03T03:33:39.086Z,1.6
2019-01-03T03:34:39.772Z,1.6
2019-01-03T03:35:39.905Z,4.2
2019-01-03T03:36:39.538Z,1.9
2019-01-03T03:37:39.177Z,1.8
2019-01-03T03:38:38.715Z,1.7
2019-01-03T03:39:39.875Z,1.9
2019-01-03T03:40:40.177Z,2.0
2019-01-03T03:41:38.923Z,2.3
2019-01-03T03:42:39.272Z,2.3
2019-01-03T03:43:39.414Z,1.6
2019-01-03T03:44:38.703Z,1.8
2019-01-03T03:45:39.878Z,2.1
2019-01-03T03:46:39.124Z,2.2
2019-01-03T03:47:39.254Z,2.8
2019-01-03T03:48:38.744Z,2.0
2019-01-03T03:49:38.787Z,1.9
2019-01-03T03:50:39.004Z,2.2
2019-01-03T03:51:39.678Z,1.7
2019-01-03T03:52:39.217Z,1.9
2019-01-03T03:53:40.003Z,1.8
2019-01-03T03:54:38.980Z,1.6
2019-01-03T03:55:38.970Z,1.7
2019-01-03T03:56:39.163Z,1.7
2019-01-03T03:57:39.203Z,1.8
2019-01-03T03:58:39.062Z,1.8
2019-01-03T03:59:40.488Z,1.9
2019-01-03T04:00:39.193Z,1.5
2019-01-03T04:01:38.770Z,2.1
2019-01-03T04:02:38.994Z,2.4
2019-01-03T04:03:41.197Z,2.2
2019-01-03T04:04:38.930Z,1.5
2019-01-03T04:05:38.831Z,1.4
2019-01-03T04:06:39.225Z,1.6
2019-01-03T04:07:39.245Z,2.0
2019-01-03T04:08:38.861Z,1.9
2019-01-03T04:09:39.607Z,1.5
2019-01-03T04:10:39.427Z,1.9
2019-01-03T04:11:40.256Z,1.8
2019-01-03T04:12:39.024Z,1.8
2019-01-03T04:13:39.042Z,1.6
2019-01-03T04:14:40.580Z,1.5
2019-01-03T04:15:39.506Z,2.1
2019-01-03T04:16:39.015Z,1.8
2019-01-03T04:17:38.805Z,1.6
2019-01-03T04:18:39.276Z,1.5
2019-01-03T04:19:38.959Z,1.5
2019-01-03T04:20:39.327Z,1.3
2019-01-03T04:21:38.816Z,1.4
2019-01-03T04:22:39.212Z,1.7
2019-01-03T04:23:39.266Z,1.4
2019-01-03T04:24:39.014Z,1.6
2019-01-03T04:25:38.975Z,2.5
2019-01-03T04:26:38.812Z,1.9
2019-01-03T04:27:39.079Z,2.2
2019-01-03T04:28:38.970Z,1.6
2019-01-03T04:29:39.457Z,1.7
2019-01-03T04:30:40.236Z,1.7
2019-01-03T04:31:38.788Z,1.7
2019-01-03T04:32:40.304Z,1.9
2019-01-03T04:33:39.324Z,1.6
2019-01-03T04:34:39.542Z,2.0
2019-01-03T04:35:38.798Z,1.5
2019-01-03T04:36:39.820Z,2.1
2019-01-03T04:37:39.131Z,1.6
2019-01-03T04:38:40.405Z,1.5
2019-01-03T04:39:38.950Z,1.4
2019-01-03T04:40:39.372Z,2.3
2019-01-03T04:41:40.311Z,1.5
2019-01-03T04:42:39.729Z,1.9
2019-01-03T04:43:38.838Z,1.7
2019-01-03T04:44:40.067Z,1.9
2019-01-03T04:45:38.817Z,2.3
2019-01-03T04:46:39.002Z,1.8
2019-01-03T04:47:38.984Z,2.0
2019-01-03T04:48:38.979Z,1.8
2019-01-03T04:49:39.553Z,2.0
2019-01-03T04:50:40.548Z,1.6
2019-01-03T04:51:39.065Z,2.4
2019-01-03T04:52:39.228Z,1.5
2019-01-03T04:53:39.681Z,2.1
2019-01-03T04:54:40.537Z,1.9
2019-01-03T04:55:39.817Z,1.8
2019-01-03T04:56:39.758Z,1.8
2019-01-03T04:57:39.377Z,1.6
2019-01-03T04:58:39.054Z,1.5
2019-01-03T04:59:39.517Z,1.7
2019-01-03T05:00:39.163Z,1.9
2019-01-03T05:01:40.143Z,1.5
2019-01-03T05:02:39.229Z,1.5
2019-01-03T05:03:40.073Z,1.5
2019-01-03T05:04:39.565Z,2.0
2019-01-03T05:05:39.854Z,1.7
2019-01-03T05:06:40.498Z,1.4
2019-01-03T05:07:39.118Z,1.7
2019-01-03T05:08:38.992Z,2.1
2019-01-03T05:09:39.454Z,1.4
2019-01-03T05:10:39.053Z,1.7
2019-01-03T05:11:39.295Z,1.4
2019-01-03T05:12:38.993Z,1.5
2019-01-03T05:13:39.322Z,1.8
2019-01-03T05:14:39.672Z,1.4
2019-01-03T05:15:40.022Z,1.5
2019-01-03T05:16:39.345Z,1.7
2019-01-03T05:17:40.168Z,1.5
2019-01-03T05:18:39.415Z,1.6
2019-01-03T05:19:40.152Z,1.9
2019-01-03T05:20:38.983Z,2.0
2019-01-03T05:21:40.054Z,1.8
2019-01-03T05:22:40.757Z,1.6
2019-01-03T05:23:39.120Z,2.1
2019-01-03T05:24:39.727Z,1.7
2019-01-03T05:25:39.801Z,1.8
2019-01-03T05:26:39.378Z,1.4
2019-01-03T05:27:39.371Z,1.4
2019-01-03T05:28:38.886Z,1.4
2019-01-03T05:29:40.646Z,1.5
2019-01-03T05:30:40.834Z,1.7
2019-01-03T05:31:38.958Z,1.5
2019-01-03T05:32:39.962Z,1.4
2019-01-03T05:33:39.408Z,2.2
2019-01-03T05:34:39.980Z,1.7
2019-01-03T05:35:38.993Z,1.5
2019-01-03T05:36:39.118Z,1.4
2019-01-03T05:37:39.701Z,1.4
2019-01-03T05:38:39.092Z,1.5
2019-01-03T05:39:39.054Z,1.4
2019-01-03T05:40:39.315Z,2.2
2019-01-03T05:41:39.000Z,1.5
2019-01-03T05:42:39.964Z,2.0
2019-01-03T05:43:39.118Z,2.0
2019-01-03T05:44:39.365Z,1.6
2019-01-03T05:45:40.043Z,1.7
2019-01-03T05:46:39.121Z,1.8
2019-01-03T05:47:41.089Z,1.8
2019-01-03T05:48:38.960Z,1.4
2019-01-03T05:49:38.930Z,1.4
2019-01-03T05:50:38.918Z,1.5
2019-01-03T05:51:39.110Z,1.7
2019-01-03T05:52:38.932Z,1.6
2019-01-03T05:53:39.494Z,1.4
2019-01-03T05:54:39.138Z,1.7
2019-01-03T05:55:39.447Z,1.7
2019-01-03T05:56:39.164Z,1.5
2019-01-03T05:57:39.046Z,2.3
2019-01-03T05:58:39.771Z,1.4
2019-01-03T05:59:39.386Z,1.6
2019-01-03T06:00:39.392Z,1.6
2019-01-03T06:01:39.061Z,1.6
2019-01-03T06:02:39.686Z,1.6
2019-01-03T06:03:40.274Z,1.8
2019-01-03T06:04:40.167Z,1.6
2019-01-03T06:05:39.364Z,1.5
2019-01-03T06:06:39.001Z,1.4
2019-01-03T06:07:39.268Z,1.4
2019-01-03T06:08:39.210Z,1.3
2019-01-03T06:09:40.918Z,1.8
2019-01-03T06:10:40.606Z,1.4
2019-01-03T06:11:40.614Z,2.2
2019-01-03T06:12:39.253Z,1.6
2019-01-03T06:13:39.400Z,2.2
2019-01-03T06:14:39.115Z,1.6
2019-01-03T06:15:40.155Z,1.8
2019-01-03T06:16:40.795Z,1.5
2019-01-03T06:17:41.086Z,1.8
2019-01-03T06:18:40.952Z,1.4
2019-01-03T06:19:39.775Z,1.4
2019-01-03T06:20:39.777Z,1.3
2019-01-03T06:21:39.448Z,1.4
2019-01-03T06:22:39.844Z,1.5
2019-01-03T06:23:40.713Z,1.5
2019-01-03T06:24:41.221Z,1.5
2019-01-03T06:25:39.758Z,1.4
2019-01-03T06:26:39.423Z,1.9
2019-01-03T06:27:41.086Z,1.3
2019-01-03T06:28:41.707Z,1.6
2019-01-03T06:29:42.264Z,2.2
2019-01-03T06:30:39.645Z,2.0
2019-01-03T06:31:39.245Z,1.3
2019-01-03T06:32:40.613Z,1.4
2019-01-03T06:33:40.659Z,1.5
2019-01-03T06:34:41.084Z,1.5
2019-01-03T06:35:39.239Z,1.4
2019-01-03T06:36:39.224Z,1.6
2019-01-03T06:37:39.296Z,1.4
2019-01-03T06:38:39.229Z,1.5
2019-01-03T06:39:39.430Z,1.9
2019-01-03T06:40:39.685Z,1.8
2019-01-03T06:41:39.464Z,1.6
2019-01-03T06:42:41.798Z,1.5
2019-01-03T06:43:39.967Z,1.7
2019-01-03T06:44:40.693Z,1.5
2019-01-03T06:45:39.181Z,1.5
2019-01-03T06:46:39.395Z,1.5
2019-01-03T06:47:39.975Z,1.5
2019-01-03T06:48:39.308Z,1.5
2019-01-03T06:49:40.327Z,2.0
2019-01-03T06:50:39.757Z,1.3
2019-01-03T06:51:39.467Z,1.8
2019-01-03T06:52:42.525Z,1.6
2019-01-03T06:53:39.325Z,1.6
2019-01-03T06:54:40.149Z,1.6
2019-01-03T06:55:39.207Z,1.5
2019-01-03T06:56:40.142Z,1.7
2019-01-03T06:57:39.423Z,1.5
2019-01-03T06:58:39.024Z,1.5
2019-01-03T06:59:39.030Z,1.5
2019-01-03T07:00:39.003Z,1.9
2019-01-03T07:01:39.001Z,1.5
2019-01-03T07:02:40.194Z,1.4
2019-01-03T07:03:39.893Z,1.6
2019-01-03T07:04:39.572Z,1.6
2019-01-03T07:05:39.566Z,1.9
2019-01-03T07:06:39.911Z,1.7
2019-01-03T07:07:39.779Z,1.5
2019-01-03T07:08:39.279Z,1.5
2019-01-03T07:09:40.017Z,1.5
2019-01-03T07:10:39.095Z,1.5
2019-01-03T07:11:39.524Z,1.4
2019-01-03T07:12:39.543Z,1.8
2019-01-03T07:13:39.255Z,1.8
2019-01-03T07:14:41.056Z,1.7
2019-01-03T07:15:39.342Z,1.5
2019-01-03T07:16:39.551Z,1.5
2019-01-03T07:17:39.767Z,1.5
2019-01-03T07:18:39.733Z,2.1
2019-01-03T07:19:39.439Z,1.6
2019-01-03T07:20:39.221Z,2.0
2019-01-03T07:21:39.690Z,2.5
2019-01-03T07:22:39.083Z,2.0
2019-01-03T07:23:40.185Z,1.8
2019-01-03T07:24:39.402Z,2.8
2019-01-03T07:25:43.484Z,1.8
2019-01-03T07:26:40.911Z,11.3
2019-01-03T07:27:39.799Z,6.5
2019-01-03T07:28:40.440Z,6.0
2019-01-03T07:29:39.444Z,4.4
2019-01-03T07:30:39.347Z,4.0
2019-01-03T07:31:39.549Z,5.8
2019-01-03T07:32:39.094Z,5.6
2019-01-03T07:33:39.550Z,3.2
2019-01-03T07:34:39.381Z,2.9
2019-01-03T07:35:39.585Z,4.0
2019-01-03T07:36:39.339Z,5.2
2019-01-03T07:37:39.536Z,2.0
2019-01-03T07:38:41.350Z,3.4
2019-01-03T07:39:39.464Z,2.3
2019-01-03T07:40:39.181Z,2.6
2019-01-03T07:41:39.333Z,5.2
2019-01-03T07:42:39.647Z,2.6
2019-01-03T07:43:41.817Z,3.0
2019-01-03T07:44:39.128Z,2.4
2019-01-03T07:45:40.415Z,5.0
2019-01-03T07:46:39.469Z,3.2
2019-01-03T07:47:39.421Z,2.8
2019-01-03T07:48:39.371Z,3.6
2019-01-03T07:49:40.141Z,1.9
2019-01-03T07:50:40.700Z,3.0
2019-01-03T07:51:39.281Z,3.5
2019-01-03T07:52:42.360Z,2.4
2019-01-03T07:53:40.399Z,3.1
2019-01-03T07:54:41.758Z,2.7
2019-01-03T07:55:39.587Z,3.9
2019-01-03T07:56:39.159Z,2.2
2019-01-03T07:57:39.900Z,4.3
2019-01-03T07:58:39.358Z,3.3
2019-01-03T07:59:39.392Z,3.9
2019-01-03T08:00:40.912Z,2.9
2019-01-03T08:01:39.540Z,3.0
2019-01-03T08:02:39.183Z,2.0
2019-01-03T08:03:39.448Z,3.4
2019-01-03T08:04:39.445Z,3.0
2019-01-03T08:05:39.440Z,2.2
2019-01-03T08:06:39.402Z,2.4
2019-01-03T08:07:39.997Z,2.9
2019-01-03T08:08:39.273Z,2.5
2019-01-03T08:09:41.073Z,2.9
2019-01-03T08:10:39.305Z,2.9
2019-01-03T08:11:39.428Z,2.7
2019-01-03T08:12:39.676Z,2.4
2019-01-03T08:13:39.432Z,2.3
2019-01-03T08:14:41.292Z,2.9
2019-01-03T08:15:39.191Z,2.3
2019-01-03T08:16:39.501Z,2.0
2019-01-03T08:17:39.393Z,3.2
2019-01-03T08:18:39.964Z,3.0
2019-01-03T08:19:39.648Z,2.2
2019-01-03T08:20:41.157Z,2.9
2019-01-03T08:21:40.744Z,3.1
2019-01-03T08:22:39.747Z,3.7
2019-01-03T08:23:40.192Z,2.3
2019-01-03T08:24:39.615Z,2.3
2019-01-03T08:25:39.757Z,3.7
2019-01-03T08:26:39.828Z,2.5
2019-01-03T08:27:39.477Z,3.5
2019-01-03T08:28:39.454Z,4.0
2019-01-03T08:29:39.653Z,2.8
2019-01-03T08:30:39.464Z,2.4
2019-01-03T08:31:41.083Z,1.8
2019-01-03T08:32:39.540Z,2.9
2019-01-03T08:33:39.553Z,2.9
2019-01-03T08:34:39.498Z,2.2
2019-01-03T08:35:39.518Z,2.2
2019-01-03T08:36:39.536Z,1.9
2019-01-03T08:37:39.264Z,2.9
2019-01-03T08:38:39.814Z,1.8
2019-01-03T08:39:39.636Z,2.4
2019-01-03T08:40:40.428Z,3.1
2019-01-03T08:41:39.464Z,2.0
2019-01-03T08:42:39.385Z,2.9
2019-01-03T08:43:39.281Z,1.9
2019-01-03T08:44:39.341Z,2.1
2019-01-03T08:45:39.359Z,2.3
2019-01-03T08:46:39.576Z,3.0
2019-01-03T08:47:39.647Z,3.8
2019-01-03T08:48:39.722Z,2.2
2019-01-03T08:49:39.669Z,3.0
2019-01-03T08:50:39.558Z,2.2
2019-01-03T08:51:39.454Z,3.9
2019-01-03T08:52:39.532Z,2.6
2019-01-03T08:53:40.621Z,2.3
2019-01-03T08:54:39.824Z,3.2
2019-01-03T08:55:39.448Z,2.6
2019-01-03T08:56:40.633Z,2.7
2019-01-03T08:57:39.680Z,2.4
2019-01-03T08:58:39.667Z,3.3
2019-01-03T08:59:39.321Z,2.7
2019-01-03T09:00:39.867Z,2.7
2019-01-03T09:01:39.313Z,1.8
2019-01-03T09:02:39.633Z,3.2
2019-01-03T09:03:39.603Z,3.2
2019-01-03T09:04:39.659Z,3.7
2019-01-03T09:05:39.493Z,2.9
2019-01-03T09:06:39.570Z,3.2
2019-01-03T09:07:39.737Z,2.7
2019-01-03T09:08:39.714Z,2.9
2019-01-03T09:09:39.575Z,2.1
2019-01-03T09:10:39.583Z,3.3
2019-01-03T09:11:39.304Z,2.7
2019-01-03T09:12:40.688Z,2.2
2019-01-03T09:13:39.313Z,2.6
2019-01-03T09:14:39.330Z,2.2
2019-01-03T09:15:39.589Z,2.5
2019-01-03T09:16:39.576Z,2.7
2019-01-03T09:17:39.378Z,2.8
2019-01-03T09:18:39.568Z,3.0
2019-01-03T09:19:39.506Z,3.8
2019-01-03T09:20:39.409Z,2.6
2019-01-03T09:21:39.649Z,2.6
2019-01-03T09:22:39.731Z,2.9
2019-01-03T09:23:39.355Z,2.5
2019-01-03T09:24:39.350Z,2.6
2019-01-03T09:25:39.314Z,3.0
2019-01-03T09:26:39.575Z,4.0
2019-01-03T09:27:39.338Z,2.6
2019-01-03T09:28:39.548Z,2.4
2019-01-03T09:29:40.037Z,2.9
2019-01-03T09:30:39.841Z,2.2
2019-01-03T09:31:39.617Z,2.3
2019-01-03T09:32:40.891Z,2.6
2019-01-03T09:33:39.602Z,2.3
2019-01-03T09:34:39.658Z,3.7
2019-01-03T09:35:39.414Z,2.5
2019-01-03T09:36:39.575Z,3.3
2019-01-03T09:37:39.546Z,2.5
2019-01-03T09:38:39.606Z,2.9
2019-01-03T09:39:39.511Z,2.4
2019-01-03T09:40:39.437Z,2.7
2019-01-03T09:41:39.561Z,2.3
2019-01-03T09:42:39.382Z,2.9
2019-01-03T09:43:39.585Z,3.2
2019-01-03T09:44:39.570Z,2.6
2019-01-03T09:45:43.939Z,2.4
2019-01-03T09:46:40.696Z,3.2
2019-01-03T09:47:39.650Z,2.7
2019-01-03T09:48:39.336Z,2.5
2019-01-03T09:49:39.594Z,2.9
2019-01-03T09:50:39.810Z,2.8
2019-01-03T09:51:39.462Z,3.5
2019-01-03T09:52:39.406Z,2.7
2019-01-03T09:53:39.403Z,2.4
2019-01-03T09:54:39.387Z,3.0
2019-01-03T09:55:39.836Z,3.6
2019-01-03T09:56:39.623Z,3.2
2019-01-03T09:57:39.690Z,2.6
2019-01-03T09:58:39.463Z,3.7
2019-01-03T09:59:39.655Z,3.3
2019-01-03T10:00:39.939Z,3.6
2019-01-03T10:01:39.649Z,3.1
2019-01-03T10:02:39.615Z,2.9
2019-01-03T10:03:39.449Z,3.2
2019-01-03T10:04:39.487Z,3.4
2019-01-03T10:05:39.699Z,3.4
2019-01-03T10:06:39.661Z,3.0
2019-01-03T10:07:39.674Z,3.4
2019-01-03T10:08:39.658Z,3.2
2019-01-03T10:09:39.448Z,3.2
2019-01-03T10:10:39.645Z,4.5
2019-01-03T10:11:39.634Z,3.4
2019-01-03T10:12:39.959Z,3.1
2019-01-03T10:13:39.621Z,3.4
2019-01-03T10:14:39.715Z,4.3
2019-01-03T10:15:40.261Z,3.1
2019-01-03T10:16:39.822Z,3.7
2019-01-03T10:17:39.658Z,3.3
2019-01-03T10:18:39.838Z,3.5
2019-01-03T10:19:39.666Z,3.3
2019-01-03T10:20:40.682Z,3.9
2019-01-03T10:21:39.693Z,3.7
2019-01-03T10:22:39.640Z,4.0
2019-01-03T10:23:39.869Z,3.3
2019-01-03T10:24:39.446Z,5.2
2019-01-03T10:25:39.575Z,3.8
2019-01-03T10:26:40.137Z,3.3
2019-01-03T10:27:39.639Z,3.3
2019-01-03T10:28:39.497Z,2.9
2019-01-03T10:29:39.956Z,3.4
2019-01-03T10:30:39.619Z,3.0
2019-01-03T10:31:39.999Z,3.4
2019-01-03T10:32:39.740Z,3.5
2019-01-03T10:33:39.657Z,4.3
2019-01-03T10:34:39.917Z,2.9
2019-01-03T10:35:39.941Z,3.1
2019-01-03T10:36:45.147Z,3.8
2019-01-03T10:37:39.892Z,3.1
2019-01-03T10:38:39.821Z,3.6
2019-01-03T10:39:40.049Z,3.4
2019-01-03T10:40:39.687Z,3.4
2019-01-03T10:41:39.546Z,2.9
2019-01-03T10:42:40.035Z,3.2
2019-01-03T10:43:39.822Z,4.1
2019-01-03T10:44:40.435Z,3.8
2019-01-03T10:45:39.952Z,3.6
2019-01-03T10:46:39.567Z,3.9
2019-01-03T10:47:39.628Z,3.3
2019-01-03T10:48:39.874Z,2.9
2019-01-03T10:49:39.693Z,2.9
2019-01-03T10:50:39.794Z,3.2
2019-01-03T10:51:39.721Z,3.8
2019-01-03T10:52:39.771Z,2.9
2019-01-03T10:53:39.707Z,2.6
2019-01-03T10:54:39.817Z,3.7
2019-01-03T10:55:39.498Z,2.7
2019-01-03T10:56:39.796Z,3.3
2019-01-03T10:57:40.057Z,2.5
2019-01-03T10:58:40.324Z,4.5
2019-01-03T10:59:39.607Z,3.3
2019-01-03T11:00:39.827Z,3.2
2019-01-03T11:01:39.523Z,3.4
2019-01-03T11:02:39.913Z,2.9
2019-01-03T11:03:39.739Z,3.6
2019-01-03T11:04:39.894Z,3.3
2019-01-03T11:05:39.627Z,3.9
2019-01-03T11:06:39.598Z,3.9
2019-01-03T11:07:39.990Z,4.2
2019-01-03T11:08:39.738Z,3.6
2019-01-03T11:09:39.786Z,3.0
2019-01-03T11:10:39.789Z,3.2
2019-01-03T11:11:39.977Z,3.0
2019-01-03T11:12:39.800Z,3.6
2019-01-03T11:13:39.577Z,3.0
2019-01-03T11:14:40.029Z,3.0
2019-01-03T11:15:39.737Z,2.9
2019-01-03T11:16:39.973Z,4.5
2019-01-03T11:17:39.728Z,3.3
2019-01-03T11:18:39.536Z,4.0
2019-01-03T11:19:39.739Z,3.7
2019-01-03T11:20:39.819Z,3.6
2019-01-03T11:21:39.916Z,3.0
2019-01-03T11:22:39.870Z,3.9
2019-01-03T11:23:39.744Z,4.3
2019-01-03T11:24:39.800Z,3.8
2019-01-03T11:25:39.971Z,2.5
2019-01-03T11:26:39.951Z,3.0
2019-01-03T11:27:39.636Z,3.9
2019-01-03T11:28:39.746Z,3.4
2019-01-03T11:29:39.707Z,2.8
2019-01-03T11:30:40.045Z,3.7
2019-01-03T11:31:39.787Z,3.5
2019-01-03T11:32:39.822Z,3.0
2019-01-03T11:33:39.741Z,2.6
2019-01-03T11:34:39.958Z,5.5
2019-01-03T11:35:39.818Z,2.5
2019-01-03T11:36:39.780Z,3.3
2019-01-03T11:37:40.095Z,2.8
2019-01-03T11:38:39.740Z,2.9
2019-01-03T11:39:39.968Z,2.7
2019-01-03T11:40:39.606Z,2.9
2019-01-03T11:41:39.775Z,2.9
2019-01-03T11:42:39.976Z,2.3
2019-01-03T11:43:39.588Z,2.5
2019-01-03T11:44:39.749Z,2.6
2019-01-03T11:45:39.861Z,2.8
2019-01-03T11:46:39.745Z,2.6
2019-01-03T11:47:39.929Z,2.5
2019-01-03T11:48:40.074Z,3.2
2019-01-03T11:49:39.578Z,3.2
2019-01-03T11:50:39.828Z,2.8
2019-01-03T11:51:40.050Z,2.5
2019-01-03T11:52:39.633Z,3.0
2019-01-03T11:53:40.093Z,2.8
2019-01-03T11:54:39.791Z,2.7
2019-01-03T11:55:39.825Z,3.3
2019-01-03T11:56:39.574Z,3.6
2019-01-03T11:57:39.664Z,2.9
2019-01-03T11:58:40.015Z,4.0
2019-01-03T11:59:39.741Z,2.3
2019-01-03T12:00:39.857Z,3.4
2019-01-03T12:01:40.089Z,3.7
2019-01-03T12:02:39.836Z,2.8
2019-01-03T12:03:39.679Z,3.6
2019-01-03T12:04:39.658Z,3.4
2019-01-03T12:05:39.852Z,2.3
2019-01-03T12:06:40.039Z,2.2
2019-01-03T12:07:39.619Z,2.5
2019-01-03T12:08:40.110Z,2.7
2019-01-03T12:09:39.629Z,3.2
2019-01-03T12:10:39.853Z,2.6
2019-01-03T12:11:39.620Z,3.0
2019-01-03T12:12:39.827Z,2.8
2019-01-03T12:13:39.853Z,2.7
2019-01-03T12:14:39.618Z,2.2
2019-01-03T12:15:39.660Z,2.5
2019-01-03T12:16:39.636Z,3.0
2019-01-03T12:17:39.772Z,2.1
2019-01-03T12:18:39.622Z,2.8
2019-01-03T12:19:39.621Z,2.9
2019-01-03T12:20:39.617Z,3.0
2019-01-03T12:21:39.645Z,2.6
2019-01-03T12:22:39.861Z,2.3
2019-01-03T12:23:39.677Z,2.8
2019-01-03T12:24:40.025Z,3.0
2019-01-03T12:25:39.892Z,2.6
2019-01-03T12:26:39.838Z,3.3
2019-01-03T12:27:39.847Z,2.5
2019-01-03T12:28:40.087Z,2.3
2019-01-03T12:29:39.894Z,2.2
2019-01-03T12:30:40.083Z,3.2
2019-01-03T12:31:39.717Z,3.5
2019-01-03T12:32:40.156Z,2.3
2019-01-03T12:33:40.113Z,2.8
2019-01-03T12:34:39.711Z,2.3
2019-01-03T12:35:40.116Z,2.8
2019-01-03T12:36:39.922Z,2.6
2019-01-03T12:37:40.113Z,2.0
2019-01-03T12:38:39.842Z,2.0
2019-01-03T12:39:39.881Z,3.1
2019-01-03T12:40:40.186Z,2.8
2019-01-03T12:41:39.890Z,2.1
2019-01-03T12:42:39.874Z,2.3
2019-01-03T12:43:39.683Z,2.6
2019-01-03T12:44:39.907Z,2.3
2019-01-03T12:45:39.902Z,3.2
2019-01-03T12:46:40.119Z,2.3
2019-01-03T12:47:39.983Z,2.5
2019-01-03T12:48:45.359Z,2.5
2019-01-03T12:49:40.139Z,2.5
2019-01-03T12:50:39.896Z,2.4
2019-01-03T12:51:39.707Z,2.6
2019-01-03T12:52:39.918Z,2.2
2019-01-03T12:53:39.950Z,2.2
2019-01-03T12:54:39.743Z,2.8
2019-01-03T12:55:42.412Z,2.3
2019-01-03T12:56:39.901Z,2.7
2019-01-03T12:57:39.925Z,2.7
2019-01-03T12:58:39.909Z,2.3
2019-01-03T12:59:39.951Z,2.4
2019-01-03T13:00:39.956Z,2.6
2019-01-03T13:01:39.722Z,2.4
2019-01-03T13:02:39.695Z,2.8
2019-01-03T13:03:39.933Z,3.5
2019-01-03T13:04:40.100Z,2.7
2019-01-03T13:05:39.959Z,2.6
2019-01-03T13:06:39.723Z,2.3
2019-01-03T13:07:39.945Z,2.3
2019-01-03T13:08:39.754Z,2.9
2019-01-03T13:09:40.153Z,2.4
2019-01-03T13:10:39.993Z,2.2
2019-01-03T13:11:40.190Z,2.2
2019-01-03T13:12:39.722Z,2.9
2019-01-03T13:13:39.938Z,2.3
2019-01-03T13:14:40.144Z,2.7
2019-01-03T13:15:39.938Z,2.5
2019-01-03T13:16:39.967Z,2.5
2019-01-03T13:17:39.938Z,2.8
2019-01-03T13:18:40.503Z,2.0
2019-01-03T13:19:39.985Z,2.2
2019-01-03T13:20:39.777Z,2.7
2019-01-03T13:21:40.190Z,3.2
2019-01-03T13:22:39.996Z,2.7
2019-01-03T13:23:39.950Z,2.8
2019-01-03T13:24:40.515Z,2.3
2019-01-03T13:25:39.997Z,2.5
2019-01-03T13:26:42.582Z,2.4
2019-01-03T13:27:39.965Z,3.1
2019-01-03T13:28:40.235Z,2.6
2019-01-03T13:29:40.224Z,2.6
2019-01-03T13:30:39.990Z,2.5
2019-01-03T13:31:39.991Z,2.6
2019-01-03T13:32:39.806Z,2.5
2019-01-03T13:33:40.075Z,2.5
2019-01-03T13:34:39.791Z,2.3
2019-01-03T13:35:39.808Z,1.9
2019-01-03T13:36:39.927Z,1.9
2019-01-03T13:37:40.033Z,2.9
2019-01-03T13:38:40.390Z,2.5
2019-01-03T13:39:40.014Z,2.3
2019-01-03T13:40:39.836Z,2.8
2019-01-03T13:41:40.169Z,3.2
2019-01-03T13:42:40.061Z,2.2
2019-01-03T13:43:40.202Z,2.6
2019-01-03T13:44:39.919Z,2.1
2019-01-03T13:45:40.166Z,2.1
2019-01-03T13:46:40.398Z,3.3